Time;durP1;ratioP1;P1;durP2;ratioP2;P2;SDS_P1;SDS_P2;PMS_P1;PMS_P2;Temp;Humidity;BMP_temperature;BMP_pressure;BME280_temperature;BME280_humidity;BME280_pressure;Samples;Min_cycle;Max_cycle;Signal;HPM_P1;HPM_P2
2023/01/19 00:05:49;;;;;;;19.42;14.15;;;7.60;86.90;;;;;;10928058;32;20333;-75
2023/01/19 00:11:57;;;;;;;30.60;23.17;;;7.60;87.10;;;;;;10944623;32;20100;-75
2023/01/19 00:17:59;;;;;;;24.33;16.60;;;8.00;87.00;;;;;;10947512;32;20027;-75
2023/01/19 00:24:03;;;;;;;20.12;14.00;;;8.20;86.50;;;;;;10179257;32;22365168;-75
2023/01/19 00:30:11;;;;;;;17.25;12.43;;;8.00;86.50;;;;;;10795005;33;20051;-75
2023/01/19 00:36:13;;;;;;;16.37;11.52;;;7.70;86.70;;;;;;10794284;33;20430;-75
2023/01/19 00:48:36;;;;;;;17.35;13.50;;;7.50;87.30;;;;;;10838274;32;20325;-73
2023/01/19 00:54:38;;;;;;;19.98;14.45;;;7.50;87.30;;;;;;10908537;32;20016;-73
2023/01/19 01:00:40;;;;;;;24.55;17.98;;;7.90;87.20;;;;;;10908225;32;20050;-75
2023/01/19 01:06:42;;;;;;;21.10;16.80;;;8.20;87.10;;;;;;10894299;32;20063;-76
2023/01/19 01:12:45;;;;;;;17.55;12.50;;;8.20;86.70;;;;;;10907885;32;20022;-75
2023/01/19 01:18:47;;;;;;;16.20;11.12;;;8.20;86.40;;;;;;10907661;32;20337;-73
2023/01/19 01:24:49;;;;;;;16.30;13.18;;;7.80;86.70;;;;;;10906729;32;20058;-73
2023/01/19 01:30:55;;;;;;;20.10;15.13;;;7.70;87.10;;;;;;10907319;32;20051;-75
2023/01/19 01:36:58;;;;;;;19.37;15.35;;;7.80;86.90;;;;;;10907091;32;20045;-75
2023/01/19 01:43:01;;;;;;;18.30;14.27;;;7.90;86.90;;;;;;10906925;32;20061;-75
2023/01/19 01:49:07;;;;;;;15.90;12.93;;;8.00;86.60;;;;;;10906630;32;20041;-75
2023/01/19 01:55:10;;;;;;;14.43;11.23;;;8.00;86.40;;;;;;10906181;32;20015;-75
2023/01/19 02:14:08;;;;;;;18.42;14.43;;;7.50;87.00;;;;;;10906886;32;20046;-75
2023/01/19 02:20:12;;;;;;;19.30;14.05;;;7.70;87.10;;;;;;10905426;32;20027;-73
2023/01/19 02:26:30;;;;;;;17.65;12.02;;;8.00;86.80;;;;;;10905254;32;20054;-73
2023/01/19 02:32:44;;;;;;;21.90;15.75;;;8.00;86.60;;;;;;10878845;32;20333;-73
2023/01/19 02:38:48;;;;;;;17.05;12.05;;;8.00;86.70;;;;;;10904917;32;20027;-73
2023/01/19 02:44:54;;;;;;;15.60;11.68;;;8.10;86.70;;;;;;10900761;32;20018;-73
2023/01/19 02:51:03;;;;;;;17.58;15.02;;;8.10;86.70;;;;;;10904614;32;20023;-73
2023/01/19 02:57:23;;;;;;;22.00;16.62;;;8.10;87.10;;;;;;10890889;32;20031;-72
2023/01/19 03:03:35;;;;;;;16.98;12.73;;;8.10;87.40;;;;;;10904335;32;20054;-75
2023/01/19 03:09:49;;;;;;;15.75;12.32;;;8.10;87.80;;;;;;10890599;32;20035;-75
2023/01/19 03:15:55;;;;;;;20.60;15.75;;;8.00;87.50;;;;;;10904096;32;20391;-76
2023/01/19 03:22:01;;;;;;;19.40;15.60;;;8.00;87.50;;;;;;10902975;32;20049;-76
2023/01/19 03:28:04;;;;;;;17.40;12.23;;;8.10;87.40;;;;;;10903856;32;20023;-76
2023/01/19 03:34:11;;;;;;;19.33;13.82;;;8.10;87.10;;;;;;10901300;32;20023;-75
2023/01/19 03:40:28;;;;;;;15.40;12.18;;;8.10;87.10;;;;;;10903598;32;20053;-76
2023/01/19 03:46:30;;;;;;;14.65;11.88;;;8.20;86.90;;;;;;10894123;32;20015;-76
2023/01/19 03:52:32;;;;;;;16.30;11.88;;;8.20;86.80;;;;;;10910832;32;20038;-76
2023/01/19 03:58:34;;;;;;;17.65;13.75;;;8.20;87.10;;;;;;10897222;32;20019;-76
2023/01/19 04:04:38;;;;;;;14.13;10.88;;;8.30;87.30;;;;;;10896720;32;20066;-76
2023/01/19 04:10:40;;;;;;;14.90;10.75;;;8.40;87.40;;;;;;10910071;32;20059;-76
2023/01/19 04:16:42;;;;;;;23.10;16.55;;;8.50;87.60;;;;;;10909909;32;20031;-76
2023/01/19 04:22:44;;;;;;;19.08;13.65;;;8.40;87.70;;;;;;10909670;32;20338;-76
2023/01/19 04:28:46;;;;;;;16.08;12.27;;;8.40;88.40;;;;;;10908303;32;20042;-76
2023/01/19 04:34:48;;;;;;;17.27;11.75;;;8.30;88.70;;;;;;10909297;32;20046;-76
2023/01/19 04:40:51;;;;;;;21.60;15.63;;;8.60;88.60;;;;;;10909054;32;20027;-76
2023/01/19 04:46:53;;;;;;;17.42;11.80;;;8.60;88.30;;;;;;10890860;32;20322;-76
2023/01/19 04:52:55;;;;;;;17.90;13.27;;;8.60;88.20;;;;;;10908709;32;20402;-76
2023/01/19 04:58:57;;;;;;;15.80;10.18;;;8.80;87.90;;;;;;10908518;32;20353;-76
2023/01/19 05:04:59;;;;;;;14.15;10.07;;;8.90;87.60;;;;;;10904816;32;20046;-76
2023/01/19 05:11:01;;;;;;;16.85;12.55;;;9.00;87.50;;;;;;10908188;32;20073;-76
2023/01/19 05:17:03;;;;;;;16.05;10.60;;;9.00;87.20;;;;;;10907840;32;20027;-76
2023/01/19 05:23:05;;;;;;;15.57;12.43;;;9.00;87.10;;;;;;10893698;32;20031;-76
2023/01/19 05:29:08;;;;;;;18.70;13.38;;;9.00;87.30;;;;;;10905971;32;20035;-76
2023/01/19 05:35:12;;;;;;;21.42;14.90;;;9.20;87.60;;;;;;10906788;32;20016;-76
2023/01/19 05:41:14;;;;;;;13.50;10.48;;;9.20;87.10;;;;;;10894601;32;20054;-73
2023/01/19 05:47:16;;;;;;;13.68;8.35;;;9.20;87.20;;;;;;10906798;32;20019;-73
2023/01/19 05:53:18;;;;;;;16.37;8.15;;;9.30;87.10;;;;;;10892974;32;20333;-73
2023/01/19 05:59:22;;;;;;;11.35;7.45;;;9.40;87.40;;;;;;10892473;32;20325;-73
2023/01/19 06:05:24;;;;;;;13.80;9.50;;;9.50;87.40;;;;;;10906047;32;20057;-73
2023/01/19 06:11:27;;;;;;;8.65;5.65;;;9.60;87.20;;;;;;10905447;32;20042;-73
2023/01/19 06:17:31;;;;;;;10.25;7.07;;;9.60;87.00;;;;;;10905658;32;20023;-73
2023/01/19 06:23:39;;;;;;;8.93;6.03;;;9.60;86.70;;;;;;10874502;32;20019;-73
2023/01/19 06:29:42;;;;;;;9.50;7.18;;;9.60;86.80;;;;;;10866751;32;20050;-73
2023/01/19 06:36:08;;;;;;;11.18;7.40;;;9.70;86.80;;;;;;10853794;32;20039;-73
2023/01/19 06:42:10;;;;;;;10.35;7.57;;;9.70;86.80;;;;;;10861706;32;20455;-73
2023/01/19 06:48:12;;;;;;;11.43;7.32;;;9.70;86.80;;;;;;10863575;32;20050;-73
2023/01/19 06:54:14;;;;;;;7.82;5.55;;;9.50;86.60;;;;;;10863422;32;20035;-73
2023/01/19 07:00:17;;;;;;;9.95;6.90;;;9.50;86.90;;;;;;10863614;32;20031;-73
2023/01/19 07:06:20;;;;;;;8.20;5.40;;;9.50;86.80;;;;;;10863054;32;20381;-73
2023/01/19 07:12:22;;;;;;;8.68;5.37;;;9.70;86.60;;;;;;10863811;32;20373;-73
2023/01/19 07:18:24;;;;;;;7.18;4.03;;;9.70;86.30;;;;;;10896294;32;20036;-72
2023/01/19 07:24:26;;;;;;;4.55;3.22;;;9.80;86.50;;;;;;10910931;32;20046;-72
2023/01/19 07:30:28;;;;;;;4.40;2.70;;;9.80;86.60;;;;;;10893068;32;20401;-72
2023/01/19 07:36:30;;;;;;;3.37;1.92;;;9.80;86.50;;;;;;10910479;32;20365;-76
2023/01/19 07:42:36;;;;;;;2.37;1.70;;;9.70;86.80;;;;;;10905470;32;20417;-75
2023/01/19 07:48:39;;;;;;;4.62;2.62;;;9.40;86.60;;;;;;10910966;32;20435;-76
2023/01/19 07:54:40;;;;;;;4.32;1.85;;;9.20;87.30;;;;;;10909635;32;20031;-77
2023/01/19 08:00:54;;;;;;;1.80;1.40;;;9.20;87.10;;;;;;10910624;32;20366;-75
2023/01/19 08:07:16;;;;;;;2.53;1.40;;;9.10;87.00;;;;;;10909182;32;20035;-78
2023/01/19 08:13:25;;;;;;;3.35;1.73;;;9.00;86.70;;;;;;10896394;32;20038;-74
2023/01/19 08:19:27;;;;;;;2.43;1.37;;;8.80;86.80;;;;;;10909902;32;20436;-74
2023/01/19 08:25:40;;;;;;;2.08;1.30;;;8.70;86.50;;;;;;10814719;27;20350;-73
2023/01/19 08:31:43;;;;;;;2.92;1.30;;;8.80;87.20;;;;;;10791925;33;20335;-73
2023/01/19 08:37:46;;;;;;;2.40;1.30;;;8.90;87.00;;;;;;10788151;33;20024;-73
2023/01/19 08:43:48;;;;;;;3.20;1.80;;;8.80;85.80;;;;;;10791271;33;20024;-78
2023/01/19 08:49:50;;;;;;;2.53;1.50;;;8.60;85.50;;;;;;10791834;33;20024;-74
2023/01/19 08:55:58;;;;;;;5.10;3.05;;;8.40;85.50;;;;;;10787628;33;20056;-77
2023/01/19 09:02:01;;;;;;;1.80;1.10;;;8.20;83.90;;;;;;10842135;32;20036;-76
2023/01/19 09:08:04;;;;;;;2.28;1.42;;;8.10;84.00;;;;;;10791249;33;20008;-76
2023/01/19 09:14:07;;;;;;;7.05;1.27;;;8.10;85.20;;;;;;10790542;33;20012;-76
2023/01/19 09:20:10;;;;;;;1.05;0.80;;;8.20;85.00;;;;;;10789873;33;20390;-76
2023/01/19 09:26:12;;;;;;;1.33;1.02;;;8.10;83.80;;;;;;10839707;32;20086;-77
2023/01/19 09:32:13;;;;;;;3.17;1.12;;;8.10;84.60;;;;;;10790595;33;20382;-76
2023/01/19 09:38:16;;;;;;;5.10;2.22;;;8.10;84.60;;;;;;10853450;32;20028;-76
2023/01/19 09:44:31;;;;;;;3.30;1.50;;;8.10;84.90;;;;;;10786307;33;20047;-75
2023/01/19 09:50:37;;;;;;;2.92;1.80;;;8.10;84.80;;;;;;10789876;33;20051;-77
2023/01/19 09:56:40;;;;;;;2.47;1.20;;;8.00;85.00;;;;;;10786582;33;20020;-77
2023/01/19 10:02:45;;;;;;;2.83;1.55;;;8.10;85.40;;;;;;10787711;33;20067;-77
2023/01/19 10:08:58;;;;;;;4.50;2.05;;;8.10;85.80;;;;;;10789122;33;20287;-75
2023/01/19 10:15:15;;;;;;;5.37;1.27;;;8.10;85.30;;;;;;10836093;32;20050;-77
2023/01/19 10:21:24;;;;;;;6.97;3.30;;;8.00;85.40;;;;;;10808710;32;20435;-77
2023/01/19 10:27:30;;;;;;;3.93;2.37;;;8.20;86.10;;;;;;10943222;32;20038;-77
2023/01/19 10:33:34;;;;;;;4.30;2.47;;;8.10;85.20;;;;;;10940102;32;20150;-77
2023/01/19 10:39:36;;;;;;;4.35;2.20;;;8.10;85.70;;;;;;10942679;32;20019;-76
2023/01/19 10:45:38;;;;;;;2.25;1.60;;;8.10;85.40;;;;;;10954291;32;20393;-77
2023/01/19 10:51:49;;;;;;;5.00;2.12;;;7.90;84.90;;;;;;10942374;32;20018;-77
2023/01/19 10:57:55;;;;;;;1.42;1.27;;;7.80;85.10;;;;;;10942082;32;20049;-73
2023/01/19 11:05:19;;;;;;;1.48;1.00;;;7.70;84.50;;;;;;10749964;33;20029;-73
2023/01/19 11:11:23;;;;;;;2.62;1.55;;;7.50;82.90;;;;;;10753222;33;20044;-71
2023/01/19 11:17:25;;;;;;;2.95;1.20;;;7.30;83.90;;;;;;10740638;33;20035;-73
2023/01/19 11:23:40;;;;;;;1.55;1.15;;;7.20;85.10;;;;;;10680022;33;20038;-72
2023/01/19 11:29:51;;;;;;;2.12;1.02;;;7.20;85.90;;;;;;10604642;33;20052;-72
2023/01/19 11:36:01;;;;;;;;;;;7.10;85.60;;;;;;10797388;32;20090;-73
2023/01/19 11:42:05;;;;;;;3.58;1.37;;;7.20;86.00;;;;;;10787286;33;19979;-73
2023/01/19 11:48:22;;;;;;;2.47;1.48;;;7.30;86.90;;;;;;10787079;33;20020;-73
2023/01/19 11:55:13;;;;;;;2.70;1.87;;;7.40;87.20;;;;;;10923807;32;20026;-72
2023/01/19 12:01:19;;;;;;;1.85;1.10;;;7.60;87.50;;;;;;10978557;32;20042;-73
2023/01/19 12:07:38;;;;;;;1.42;1.12;;;7.80;88.20;;;;;;10982088;32;20014;-73
2023/01/19 12:14:17;;;;;;;1.50;1.20;;;8.00;87.90;;;;;;10985127;32;20023;-73
2023/01/19 12:20:45;;;;;;;3.33;2.08;;;8.00;88.20;;;;;;10970954;32;20329;-73
2023/01/19 12:27:03;;;;;;;2.85;1.55;;;8.00;88.40;;;;;;10982338;32;20039;-72
2023/01/19 12:33:35;;;;;;;2.45;1.75;;;7.90;87.40;;;;;;10984980;32;20340;-72
2023/01/19 12:39:47;;;;;;;2.75;1.30;;;7.80;87.00;;;;;;10984671;32;20045;-74
2023/01/19 12:45:49;;;;;;;4.03;1.87;;;7.90;88.20;;;;;;10984283;32;20014;-73
2023/01/19 12:52:14;;;;;;;3.50;2.15;;;7.70;87.30;;;;;;10929111;32;20078;-73
2023/01/19 12:58:20;;;;;;;2.35;1.15;;;7.70;87.40;;;;;;10692057;33;20033;-74
2023/01/19 13:04:32;;;;;;;2.80;1.98;;;7.30;86.20;;;;;;10714419;33;20489;-74
2023/01/19 13:10:55;;;;;;;2.35;1.58;;;7.00;86.90;;;;;;10714784;33;20021;-74
2023/01/19 13:17:01;;;;;;;2.58;1.55;;;6.90;86.60;;;;;;10710044;33;20033;-71
2023/01/19 13:23:25;;;;;;;2.97;1.45;;;7.10;88.10;;;;;;10714417;33;20033;-75
2023/01/19 13:29:36;;;;;;;2.35;1.50;;;7.00;86.60;;;;;;10713153;33;20052;-74
2023/01/19 13:35:57;;;;;;;1.08;0.93;;;7.00;87.40;;;;;;10775738;33;20024;-73
2023/01/19 13:42:04;;;;;;;5.25;2.20;;;7.00;88.10;;;;;;10790254;33;20012;-74
2023/01/19 13:48:07;;;;;;;3.20;1.87;;;6.90;87.60;;;;;;10789969;33;20031;-75
2023/01/19 13:54:16;;;;;;;3.17;1.73;;;6.80;87.60;;;;;;10835063;32;20020;-74
2023/01/19 14:00:23;;;;;;;3.53;1.95;;;6.90;88.20;;;;;;10786914;33;20059;-75
2023/01/19 14:06:45;;;;;;;2.05;1.40;;;7.10;88.20;;;;;;10789621;33;20397;-74
2023/01/19 14:13:15;;;;;;;3.08;1.60;;;7.00;88.30;;;;;;10839885;32;20425;-74
2023/01/19 14:19:17;;;;;;;1.85;1.52;;;7.10;89.00;;;;;;10764400;33;20021;-74
2023/01/19 14:25:26;;;;;;;3.08;1.90;;;7.20;88.30;;;;;;10754065;33;20020;-74
2023/01/19 14:31:32;;;;;;;;;;;6.90;86.90;;;;;;10781601;33;20028;-73
2023/01/19 14:37:44;;;;;;;3.05;1.65;;;6.80;88.10;;;;;;10833668;32;19937;-72
2023/01/19 14:43:46;;;;;;;2.45;1.52;;;6.90;88.20;;;;;;10788396;33;20020;-73
2023/01/19 14:49:48;;;;;;;4.30;2.03;;;6.90;88.60;;;;;;10898633;32;20337;-73
2023/01/19 14:55:58;;;;;;;3.42;2.00;;;7.00;88.70;;;;;;10938319;32;20026;-73
2023/01/19 15:02:00;;;;;;;3.60;1.90;;;7.00;88.20;;;;;;10954422;32;20042;-73
2023/01/19 15:08:03;;;;;;;3.10;2.12;;;6.90;88.40;;;;;;10941683;32;20055;-73
2023/01/19 15:14:05;;;;;;;6.37;2.45;;;6.80;87.70;;;;;;10953248;32;20019;-76
2023/01/19 15:20:16;;;;;;;4.53;2.00;;;7.10;88.00;;;;;;10899943;32;20032;-77
2023/01/19 15:26:21;;;;;;;3.22;1.95;;;6.80;88.00;;;;;;10952673;32;20027;-76
2023/01/19 15:32:30;;;;;;;2.53;2.17;;;6.60;88.10;;;;;;10941490;32;20019;-77
2023/01/19 15:38:32;;;;;;;2.40;1.60;;;6.90;88.30;;;;;;10953049;32;20081;-76
2023/01/19 15:44:34;;;;;;;2.87;1.58;;;6.80;87.60;;;;;;10948081;32;20432;-77
2023/01/19 15:50:42;;;;;;;2.67;1.55;;;6.60;87.50;;;;;;10856030;32;20036;-76
2023/01/19 15:56:47;;;;;;;2.75;2.05;;;6.70;89.10;;;;;;10789526;33;20319;-77
2023/01/19 16:03:03;;;;;;;5.45;2.22;;;6.70;88.50;;;;;;10793057;33;20020;-77
2023/01/19 16:09:05;;;;;;;1.92;1.25;;;6.70;88.80;;;;;;10792871;33;20040;-77
2023/01/19 16:15:07;;;;;;;3.80;1.33;;;6.70;88.50;;;;;;10792946;33;20019;-77
2023/01/19 16:21:10;;;;;;;4.80;2.17;;;6.60;88.80;;;;;;10795086;27;20020;-77
2023/01/19 16:27:12;;;;;;;7.55;2.35;;;6.50;88.20;;;;;;10786613;33;20024;-77
2023/01/19 16:33:14;;;;;;;3.85;1.70;;;6.60;89.00;;;;;;10742937;32;20032;-75
2023/01/19 16:39:16;;;;;;;3.60;2.10;;;6.70;88.80;;;;;;10755391;33;20051;-76
2023/01/19 16:45:18;;;;;;;3.00;1.70;;;7.00;88.80;;;;;;10755420;33;20390;-76
2023/01/19 16:51:20;;;;;;;2.90;1.75;;;7.10;89.00;;;;;;10755011;33;20009;-74
2023/01/19 16:57:22;;;;;;;4.05;2.22;;;7.10;88.50;;;;;;10754975;33;20017;-73
2023/01/19 17:03:25;;;;;;;2.22;1.37;;;6.90;89.00;;;;;;10739756;33;20012;-73
2023/01/19 17:09:27;;;;;;;3.47;2.17;;;6.90;89.00;;;;;;10754784;33;20350;-73
2023/01/19 17:15:31;;;;;;;4.70;2.12;;;6.80;88.70;;;;;;10754622;33;20017;-73
2023/01/19 17:21:34;;;;;;;3.55;2.33;;;6.70;88.60;;;;;;10763316;33;20056;-73
2023/01/19 17:27:36;;;;;;;6.12;2.25;;;6.80;89.00;;;;;;10790909;32;20016;-73
2023/01/19 17:33:38;;;;;;;3.92;2.37;;;7.00;88.80;;;;;;10790548;33;20058;-73
2023/01/19 17:39:40;;;;;;;3.95;1.55;;;7.10;88.80;;;;;;10790358;33;20008;-73
2023/01/19 17:45:44;;;;;;;3.42;1.80;;;7.20;89.20;;;;;;10787260;33;20051;-73
2023/01/19 17:51:53;;;;;;;3.47;2.28;;;7.40;89.10;;;;;;10789966;33;20105;-73
2023/01/19 17:57:56;;;;;;;3.10;1.75;;;7.30;87.50;;;;;;10785560;33;20436;-73
2023/01/19 18:04:01;;;;;;;1.95;1.45;;;7.20;88.00;;;;;;10789028;33;20009;-77
2023/01/19 18:10:05;;;;;;;7.40;2.33;;;7.20;88.40;;;;;;10789608;33;20051;-76
2023/01/19 18:16:10;;;;;;;2.95;1.98;;;7.20;88.00;;;;;;10789275;33;20020;-77
2023/01/19 18:22:19;;;;;;;4.95;3.03;;;7.30;88.30;;;;;;10788969;33;20432;-77
2023/01/19 18:28:21;;;;;;;4.95;2.12;;;7.40;88.30;;;;;;10788897;33;20016;-77
2023/01/19 18:34:23;;;;;;;4.10;2.28;;;7.20;87.20;;;;;;10775757;33;20068;-77
2023/01/19 18:40:25;;;;;;;3.00;1.98;;;7.00;88.00;;;;;;10788542;33;20024;-77
2023/01/19 18:46:27;;;;;;;5.37;2.15;;;6.90;87.90;;;;;;10786415;33;20303;-73
2023/01/19 18:52:31;;;;;;;3.60;2.17;;;7.00;88.50;;;;;;10788381;33;20020;-73
2023/01/19 18:58:37;;;;;;;4.87;2.55;;;7.00;88.00;;;;;;10786413;33;20082;-73
2023/01/19 19:04:40;;;;;;;4.53;2.70;;;7.00;88.40;;;;;;10784296;33;20051;-73
2023/01/19 19:10:42;;;;;;;5.40;3.30;;;7.00;88.20;;;;;;10787943;33;20020;-73
2023/01/19 19:16:44;;;;;;;3.90;2.83;;;7.00;88.20;;;;;;10774538;33;20067;-73
2023/01/19 19:22:46;;;;;;;4.40;2.67;;;7.00;88.20;;;;;;10763983;32;20028;-73
2023/01/19 19:28:49;;;;;;;4.60;2.50;;;6.90;88.50;;;;;;10787504;33;20024;-73
2023/01/19 19:35:17;;;;;;;4.70;3.45;;;6.80;87.70;;;;;;10786567;33;20016;-73
2023/01/19 19:41:25;;;;;;;5.82;3.37;;;6.70;87.60;;;;;;10787165;33;20058;-73
2023/01/19 19:47:30;;;;;;;5.12;3.05;;;6.50;87.30;;;;;;10787120;33;20375;-73
2023/01/19 19:53:34;;;;;;;4.00;3.00;;;6.50;87.70;;;;;;10773927;32;20043;-73
2023/01/19 19:59:37;;;;;;;3.60;2.17;;;6.40;87.60;;;;;;10763091;32;20043;-77
2023/01/19 20:05:39;;;;;;;2.45;1.60;;;6.20;86.50;;;;;;10782714;33;20035;-77
2023/01/19 20:11:43;;;;;;;3.40;2.58;;;6.00;87.10;;;;;;10786440;33;20472;-77
2023/01/19 20:17:45;;;;;;;4.45;2.53;;;6.00;87.30;;;;;;10786323;33;20433;-77
2023/01/19 20:23:49;;;;;;;3.22;1.80;;;5.90;87.30;;;;;;10773166;33;20012;-77
2023/01/19 20:29:56;;;;;;;3.58;2.20;;;5.80;86.00;;;;;;10790848;33;20024;-78
2023/01/19 20:35:58;;;;;;;2.75;2.00;;;5.70;86.50;;;;;;10781043;33;20012;-78
2023/01/19 20:42:01;;;;;;;4.03;2.33;;;5.70;87.30;;;;;;10780058;33;20051;-77
2023/01/19 20:48:03;;;;;;;3.83;2.62;;;5.80;87.80;;;;;;10791785;33;20350;-76
2023/01/19 20:54:04;;;;;;;5.10;3.37;;;5.90;87.80;;;;;;10791268;33;20051;-77
2023/01/19 21:00:15;;;;;;;4.50;3.00;;;5.80;87.70;;;;;;10790590;33;20433;-77
2023/01/19 21:06:19;;;;;;;4.80;2.28;;;5.80;87.60;;;;;;10791747;32;20425;-77
2023/01/19 21:12:34;;;;;;;4.97;2.90;;;5.70;87.70;;;;;;10791290;33;20013;-77
2023/01/19 21:18:42;;;;;;;4.50;2.75;;;5.80;88.20;;;;;;10791086;32;20398;-78
2023/01/19 21:24:46;;;;;;;4.40;2.65;;;5.90;87.80;;;;;;10766881;32;20032;-77
2023/01/19 21:30:49;;;;;;;3.58;2.20;;;6.00;88.40;;;;;;10790788;33;20009;-77
2023/01/19 21:36:51;;;;;;;4.20;2.17;;;6.00;87.40;;;;;;10790230;33;20040;-78
2023/01/19 21:42:53;;;;;;;2.10;1.60;;;5.90;87.40;;;;;;10790167;32;20016;-77
2023/01/19 21:48:57;;;;;;;2.28;1.60;;;5.90;87.30;;;;;;10790129;33;20419;-77
2023/01/19 21:54:58;;;;;;;3.08;1.75;;;5.90;87.80;;;;;;10786347;33;20342;-77
2023/01/19 22:01:12;;;;;;;3.25;2.30;;;5.80;88.10;;;;;;10764284;32;20036;-76
2023/01/19 22:07:14;;;;;;;3.37;1.92;;;5.90;87.80;;;;;;10789668;33;20020;-77
2023/01/19 22:13:16;;;;;;;4.25;2.47;;;5.80;87.50;;;;;;10789456;33;20016;-78
2023/01/19 22:19:19;;;;;;;2.65;1.80;;;5.80;87.70;;;;;;10789392;33;20434;-78
2023/01/19 22:25:26;;;;;;;4.37;2.45;;;5.80;88.00;;;;;;10788784;33;20017;-78
2023/01/19 22:31:29;;;;;;;4.97;2.20;;;6.10;88.80;;;;;;10788981;33;20046;-77
2023/01/19 22:37:35;;;;;;;6.65;2.80;;;6.10;88.60;;;;;;10788686;33;20019;-77
2023/01/19 22:43:37;;;;;;;3.42;2.30;;;6.20;88.10;;;;;;10775695;33;20395;-77
2023/01/19 22:49:39;;;;;;;2.22;1.33;;;6.20;88.60;;;;;;10788178;33;20012;-77
2023/01/19 22:55:41;;;;;;;3.53;1.52;;;6.40;88.70;;;;;;10788374;33;20016;-76
2023/01/19 23:01:43;;;;;;;2.33;1.42;;;6.50;88.80;;;;;;10787960;33;20048;-77
2023/01/19 23:07:45;;;;;;;2.60;1.30;;;6.60;88.90;;;;;;10787946;32;20016;-77
2023/01/19 23:13:48;;;;;;;2.58;1.60;;;6.80;89.10;;;;;;10787707;33;20051;-77
2023/01/19 23:19:50;;;;;;;3.08;2.22;;;6.90;88.20;;;;;;10784368;33;20024;-77
2023/01/19 23:25:52;;;;;;;1.37;0.95;;;6.80;88.60;;;;;;10774528;33;20032;-77
2023/01/19 23:31:55;;;;;;;1.67;1.12;;;7.00;88.90;;;;;;10787388;33;20441;-77
2023/01/19 23:37:57;;;;;;;1.75;1.00;;;7.10;89.00;;;;;;10786469;33;20039;-77
2023/01/19 23:44:00;;;;;;;2.40;1.52;;;7.20;88.90;;;;;;10787145;33;20016;-76
2023/01/19 23:50:05;;;;;;;1.15;0.95;;;7.30;88.80;;;;;;10787056;33;20016;-76
2023/01/19 23:56:18;;;;;;;1.83;1.10;;;7.40;88.90;;;;;;10761551;33;20321;-77
